sensor_id;sensor_type;location;lat;lon;timestamp;pressure;altitude;pressure_sealevel;temperature;humidity
53916;BME280;39827;49.652;18.770;2023-03-03T00:00:40;96631.84;;;-1.39;95.45
53916;BME280;39827;49.652;18.770;2023-03-03T00:03:07;96625.38;;;-1.59;95.30
53916;BME280;39827;49.652;18.770;2023-03-03T00:05:34;96631.38;;;-1.43;96.77
53916;BME280;39827;49.652;18.770;2023-03-03T00:08:00;96635.22;;;-1.39;96.07
53916;BME280;39827;49.652;18.770;2023-03-03T00:10:26;96629.78;;;-1.29;95.77
53916;BME280;39827;49.652;18.770;2023-03-03T00:12:51;96635.50;;;-1.34;94.06
53916;BME280;39827;49.652;18.770;2023-03-03T00:15:19;96630.03;;;-1.39;95.82
53916;BME280;39827;49.652;18.770;2023-03-03T00:17:46;96632.81;;;-1.40;95.93
53916;BME280;39827;49.652;18.770;2023-03-03T00:20:32;96630.88;;;-1.23;96.09
53916;BME280;39827;49.652;18.770;2023-03-03T00:25:54;96629.78;;;-1.29;94.98
53916;BME280;39827;49.652;18.770;2023-03-03T00:31:15;96623.72;;;-1.60;94.21
53916;BME280;39827;49.652;18.770;2023-03-03T00:33:46;96633.44;;;-1.53;94.68
53916;BME280;39827;49.652;18.770;2023-03-03T00:38:41;96624.13;;;-1.86;95.45
53916;BME280;39827;49.652;18.770;2023-03-03T00:41:17;96630.78;;;-1.68;93.89
53916;BME280;39827;49.652;18.770;2023-03-03T00:43:44;96635.53;;;-1.72;94.65
53916;BME280;39827;49.652;18.770;2023-03-03T00:46:15;96634.97;;;-1.44;95.96
53916;BME280;39827;49.652;18.770;2023-03-03T00:48:43;96630.38;;;-1.42;96.24
53916;BME280;39827;49.652;18.770;2023-03-03T00:51:30;96626.19;;;-1.28;95.30
53916;BME280;39827;49.652;18.770;2023-03-03T00:53:58;96628.31;;;-1.62;95.40
53916;BME280;39827;49.652;18.770;2023-03-03T00:56:24;96634.66;;;-1.64;96.27
53916;BME280;39827;49.652;18.770;2023-03-03T00:58:49;96632.69;;;-1.86;97.72
53916;BME280;39827;49.652;18.770;2023-03-03T01:01:16;96627.81;;;-1.80;95.92
53916;BME280;39827;49.652;18.770;2023-03-03T01:03:42;96624.28;;;-1.88;96.60
53916;BME280;39827;49.652;18.770;2023-03-03T01:06:07;96628.59;;;-1.80;97.85
53916;BME280;39827;49.652;18.770;2023-03-03T01:08:33;96622.16;;;-1.84;98.21
53916;BME280;39827;49.652;18.770;2023-03-03T01:11:06;96618.34;;;-1.73;97.93
53916;BME280;39827;49.652;18.770;2023-03-03T01:13:34;96607.41;;;-1.84;97.89
53916;BME280;39827;49.652;18.770;2023-03-03T01:16:00;96621.38;;;-1.85;96.86
53916;BME280;39827;49.652;18.770;2023-03-03T01:18:27;96611.03;;;-1.93;95.58
53916;BME280;39827;49.652;18.770;2023-03-03T01:20:52;96614.13;;;-1.74;97.07
53916;BME280;39827;49.652;18.770;2023-03-03T01:23:18;96606.00;;;-1.71;97.13
53916;BME280;39827;49.652;18.770;2023-03-03T01:25:43;96606.41;;;-1.83;97.74
53916;BME280;39827;49.652;18.770;2023-03-03T01:28:09;96611.25;;;-1.79;97.50
53916;BME280;39827;49.652;18.770;2023-03-03T01:30:35;96608.75;;;-1.73;97.07
53916;BME280;39827;49.652;18.770;2023-03-03T01:33:01;96608.25;;;-1.53;96.04
53916;BME280;39827;49.652;18.770;2023-03-03T01:35:27;96596.34;;;-1.62;95.98
53916;BME280;39827;49.652;18.770;2023-03-03T01:37:54;96600.31;;;-1.90;96.47
53916;BME280;39827;49.652;18.770;2023-03-03T01:40:22;96595.13;;;-1.90;98.17
53916;BME280;39827;49.652;18.770;2023-03-03T01:42:48;96587.63;;;-1.85;96.76
53916;BME280;39827;49.652;18.770;2023-03-03T01:47:45;96590.84;;;-1.83;95.84
53916;BME280;39827;49.652;18.770;2023-03-03T01:50:14;96595.75;;;-1.88;94.01
53916;BME280;39827;49.652;18.770;2023-03-03T01:52:44;96586.97;;;-1.87;94.05
53916;BME280;39827;49.652;18.770;2023-03-03T01:55:22;96596.81;;;-1.97;93.50
53916;BME280;39827;49.652;18.770;2023-03-03T01:58:18;96592.59;;;-1.98;95.27
53916;BME280;39827;49.652;18.770;2023-03-03T02:00:52;96587.78;;;-1.86;95.88
53916;BME280;39827;49.652;18.770;2023-03-03T02:03:20;96578.19;;;-1.86;96.19
53916;BME280;39827;49.652;18.770;2023-03-03T02:05:48;96581.75;;;-2.02;96.82
53916;BME280;39827;49.652;18.770;2023-03-03T02:08:15;96577.31;;;-2.16;98.62
53916;BME280;39827;49.652;18.770;2023-03-03T02:10:45;96578.69;;;-2.05;97.47
53916;BME280;39827;49.652;18.770;2023-03-03T02:13:11;96571.97;;;-2.15;96.95
53916;BME280;39827;49.652;18.770;2023-03-03T02:15:36;96567.78;;;-2.16;96.92
53916;BME280;39827;49.652;18.770;2023-03-03T02:18:10;96576.09;;;-2.05;98.58
53916;BME280;39827;49.652;18.770;2023-03-03T02:24:07;96574.06;;;-1.95;96.54
53916;BME280;39827;49.652;18.770;2023-03-03T02:26:38;96574.91;;;-2.18;94.24
53916;BME280;39827;49.652;18.770;2023-03-03T02:29:05;96564.25;;;-2.23;96.15
53916;BME280;39827;49.652;18.770;2023-03-03T02:31:31;96567.81;;;-2.24;96.60
53916;BME280;39827;49.652;18.770;2023-03-03T02:33:57;96569.03;;;-2.12;96.95
53916;BME280;39827;49.652;18.770;2023-03-03T02:36:28;96560.00;;;-2.16;98.03
53916;BME280;39827;49.652;18.770;2023-03-03T02:38:58;96564.31;;;-2.31;99.03
53916;BME280;39827;49.652;18.770;2023-03-03T02:44:14;96573.84;;;-2.08;97.37
53916;BME280;39827;49.652;18.770;2023-03-03T02:46:42;96567.22;;;-2.11;97.71
53916;BME280;39827;49.652;18.770;2023-03-03T02:49:10;96566.84;;;-2.46;98.01
53916;BME280;39827;49.652;18.770;2023-03-03T02:51:36;96562.81;;;-2.49;100.00
53916;BME280;39827;49.652;18.770;2023-03-03T02:54:03;96570.81;;;-2.12;99.08
53916;BME280;39827;49.652;18.770;2023-03-03T02:56:28;96561.06;;;-2.10;98.53
53916;BME280;39827;49.652;18.770;2023-03-03T02:58:54;96561.91;;;-1.94;98.09
53916;BME280;39827;49.652;18.770;2023-03-03T03:01:20;96562.22;;;-2.13;97.22
53916;BME280;39827;49.652;18.770;2023-03-03T03:03:46;96562.63;;;-2.24;97.71
53916;BME280;39827;49.652;18.770;2023-03-03T03:06:12;96552.25;;;-2.24;97.43
53916;BME280;39827;49.652;18.770;2023-03-03T03:08:37;96547.41;;;-2.51;97.40
53916;BME280;39827;49.652;18.770;2023-03-03T03:11:03;96552.78;;;-2.29;97.88
53916;BME280;39827;49.652;18.770;2023-03-03T03:13:30;96557.19;;;-2.14;98.50
53916;BME280;39827;49.652;18.770;2023-03-03T03:15:56;96565.19;;;-2.16;97.81
53916;BME280;39827;49.652;18.770;2023-03-03T03:18:22;96567.47;;;-2.21;98.15
53916;BME280;39827;49.652;18.770;2023-03-03T03:20:47;96557.78;;;-2.27;96.85
53916;BME280;39827;49.652;18.770;2023-03-03T03:23:14;96560.22;;;-2.26;99.22
53916;BME280;39827;49.652;18.770;2023-03-03T03:25:40;96559.63;;;-2.36;99.64
53916;BME280;39827;49.652;18.770;2023-03-03T03:28:14;96566.66;;;-2.21;98.92
53916;BME280;39827;49.652;18.770;2023-03-03T03:30:40;96559.34;;;-2.18;99.17
53916;BME280;39827;49.652;18.770;2023-03-03T03:33:06;96562.34;;;-2.29;95.58
53916;BME280;39827;49.652;18.770;2023-03-03T03:35:33;96557.28;;;-2.23;97.00
53916;BME280;39827;49.652;18.770;2023-03-03T03:37:59;96534.78;;;-2.54;100.00
53916;BME280;39827;49.652;18.770;2023-03-03T03:40:24;96538.53;;;-2.56;100.00
53916;BME280;39827;49.652;18.770;2023-03-03T03:42:51;96552.19;;;-2.16;98.51
53916;BME280;39827;49.652;18.770;2023-03-03T03:45:17;96566.56;;;-2.28;98.36
53916;BME280;39827;49.652;18.770;2023-03-03T03:47:43;96563.25;;;-2.22;98.49
53916;BME280;39827;49.652;18.770;2023-03-03T03:50:09;96572.59;;;-2.36;96.69
53916;BME280;39827;49.652;18.770;2023-03-03T03:52:35;96568.88;;;-2.33;97.69
53916;BME280;39827;49.652;18.770;2023-03-03T03:55:00;96553.41;;;-2.27;97.85
53916;BME280;39827;49.652;18.770;2023-03-03T03:57:26;96561.81;;;-2.25;97.60
53916;BME280;39827;49.652;18.770;2023-03-03T03:59:52;96561.38;;;-2.28;97.56
53916;BME280;39827;49.652;18.770;2023-03-03T04:02:17;96553.81;;;-2.38;98.67
53916;BME280;39827;49.652;18.770;2023-03-03T04:04:43;96562.06;;;-2.34;99.07
53916;BME280;39827;49.652;18.770;2023-03-03T04:07:08;96558.31;;;-2.32;98.75
53916;BME280;39827;49.652;18.770;2023-03-03T04:09:34;96550.41;;;-2.39;97.45
53916;BME280;39827;49.652;18.770;2023-03-03T04:11:59;96567.34;;;-2.28;96.82
53916;BME280;39827;49.652;18.770;2023-03-03T04:14:25;96559.69;;;-2.21;96.94
53916;BME280;39827;49.652;18.770;2023-03-03T04:16:50;96558.84;;;-2.37;96.44
53916;BME280;39827;49.652;18.770;2023-03-03T04:19:15;96543.44;;;-2.62;99.28
53916;BME280;39827;49.652;18.770;2023-03-03T04:21:41;96553.25;;;-2.49;99.06
53916;BME280;39827;49.652;18.770;2023-03-03T04:24:06;96568.34;;;-2.29;98.00
53916;BME280;39827;49.652;18.770;2023-03-03T04:26:32;96564.34;;;-2.40;96.03
53916;BME280;39827;49.652;18.770;2023-03-03T04:28:58;96568.03;;;-2.57;93.95
53916;BME280;39827;49.652;18.770;2023-03-03T04:31:24;96559.06;;;-2.78;94.17
53916;BME280;39827;49.652;18.770;2023-03-03T04:33:50;96552.41;;;-2.72;93.96
53916;BME280;39827;49.652;18.770;2023-03-03T04:36:16;96550.88;;;-2.90;93.96
53916;BME280;39827;49.652;18.770;2023-03-03T04:38:42;96562.44;;;-2.69;95.33
53916;BME280;39827;49.652;18.770;2023-03-03T04:41:07;96562.72;;;-2.64;95.90
53916;BME280;39827;49.652;18.770;2023-03-03T04:43:32;96553.91;;;-2.78;94.44
53916;BME280;39827;49.652;18.770;2023-03-03T04:45:58;96556.00;;;-3.14;92.89
53916;BME280;39827;49.652;18.770;2023-03-03T04:48:23;96552.78;;;-3.16;95.04
53916;BME280;39827;49.652;18.770;2023-03-03T04:50:49;96564.41;;;-3.03;98.02
53916;BME280;39827;49.652;18.770;2023-03-03T04:53:14;96551.47;;;-3.11;100.00
53916;BME280;39827;49.652;18.770;2023-03-03T04:55:39;96551.25;;;-3.33;100.00
53916;BME280;39827;49.652;18.770;2023-03-03T04:58:05;96557.47;;;-3.19;100.00
53916;BME280;39827;49.652;18.770;2023-03-03T05:00:31;96563.13;;;-3.07;100.00
53916;BME280;39827;49.652;18.770;2023-03-03T05:02:57;96564.13;;;-2.85;100.00
53916;BME280;39827;49.652;18.770;2023-03-03T05:05:22;96560.28;;;-2.89;100.00
53916;BME280;39827;49.652;18.770;2023-03-03T05:07:48;96557.69;;;-2.89;99.19
53916;BME280;39827;49.652;18.770;2023-03-03T05:10:13;96565.31;;;-2.96;98.35
53916;BME280;39827;49.652;18.770;2023-03-03T05:12:39;96562.94;;;-3.06;100.00
53916;BME280;39827;49.652;18.770;2023-03-03T05:15:05;96563.97;;;-2.83;100.00
53916;BME280;39827;49.652;18.770;2023-03-03T05:17:31;96561.84;;;-2.80;100.00
53916;BME280;39827;49.652;18.770;2023-03-03T05:19:56;96564.34;;;-2.95;100.00
53916;BME280;39827;49.652;18.770;2023-03-03T05:22:22;96577.41;;;-2.88;99.55
53916;BME280;39827;49.652;18.770;2023-03-03T05:24:48;96566.94;;;-2.95;98.53
53916;BME280;39827;49.652;18.770;2023-03-03T05:27:14;96573.72;;;-2.85;98.96
53916;BME280;39827;49.652;18.770;2023-03-03T05:29:40;96572.66;;;-2.68;97.67
53916;BME280;39827;49.652;18.770;2023-03-03T05:32:06;96578.97;;;-3.02;98.11
53916;BME280;39827;49.652;18.770;2023-03-03T05:34:31;96579.28;;;-3.05;98.78
53916;BME280;39827;49.652;18.770;2023-03-03T05:36:57;96588.44;;;-2.86;98.57
53916;BME280;39827;49.652;18.770;2023-03-03T05:39:23;96595.88;;;-2.83;98.08
53916;BME280;39827;49.652;18.770;2023-03-03T05:41:48;96590.09;;;-2.93;97.63
53916;BME280;39827;49.652;18.770;2023-03-03T05:44:14;96585.13;;;-3.03;97.45
53916;BME280;39827;49.652;18.770;2023-03-03T05:46:39;96594.66;;;-3.04;99.62
53916;BME280;39827;49.652;18.770;2023-03-03T05:49:07;96592.31;;;-2.82;98.29
53916;BME280;39827;49.652;18.770;2023-03-03T05:51:32;96582.41;;;-2.78;98.34
53916;BME280;39827;49.652;18.770;2023-03-03T05:53:58;96587.25;;;-2.75;98.53
53916;BME280;39827;49.652;18.770;2023-03-03T05:56:23;96602.81;;;-2.75;97.97
53916;BME280;39827;49.652;18.770;2023-03-03T05:58:48;96599.00;;;-2.96;99.33
53916;BME280;39827;49.652;18.770;2023-03-03T06:01:14;96604.81;;;-2.62;100.00
53916;BME280;39827;49.652;18.770;2023-03-03T06:03:39;96613.34;;;-2.45;99.19
53916;BME280;39827;49.652;18.770;2023-03-03T06:06:05;96599.63;;;-2.30;97.71
53916;BME280;39827;49.652;18.770;2023-03-03T06:08:31;96602.97;;;-2.77;95.50
53916;BME280;39827;49.652;18.770;2023-03-03T06:10:57;96614.41;;;-2.63;96.13
53916;BME280;39827;49.652;18.770;2023-03-03T06:13:22;96616.25;;;-2.48;96.19
53916;BME280;39827;49.652;18.770;2023-03-03T06:15:48;96621.13;;;-2.21;95.55
53916;BME280;39827;49.652;18.770;2023-03-03T06:18:13;96621.88;;;-2.13;95.02
53916;BME280;39827;49.652;18.770;2023-03-03T06:20:38;96617.28;;;-2.26;94.61
53916;BME280;39827;49.652;18.770;2023-03-03T06:23:04;96633.13;;;-2.20;95.84
53916;BME280;39827;49.652;18.770;2023-03-03T06:25:30;96617.44;;;-2.04;95.50
53916;BME280;39827;49.652;18.770;2023-03-03T06:27:56;96634.56;;;-1.94;95.41
53916;BME280;39827;49.652;18.770;2023-03-03T06:30:22;96636.34;;;-1.95;95.11
53916;BME280;39827;49.652;18.770;2023-03-03T06:32:47;96646.59;;;-1.78;94.96
53916;BME280;39827;49.652;18.770;2023-03-03T06:35:12;96643.88;;;-1.62;94.06
53916;BME280;39827;49.652;18.770;2023-03-03T06:37:38;96637.34;;;-1.58;93.32
53916;BME280;39827;49.652;18.770;2023-03-03T06:40:04;96646.09;;;-1.74;92.30
53916;BME280;39827;49.652;18.770;2023-03-03T06:42:30;96656.94;;;-1.70;92.23
53916;BME280;39827;49.652;18.770;2023-03-03T06:44:55;96664.59;;;-1.77;93.15
53916;BME280;39827;49.652;18.770;2023-03-03T06:47:21;96664.00;;;-1.79;92.96
53916;BME280;39827;49.652;18.770;2023-03-03T06:49:46;96663.09;;;-1.71;93.26
53916;BME280;39827;49.652;18.770;2023-03-03T06:52:15;96666.50;;;-1.32;92.31
53916;BME280;39827;49.652;18.770;2023-03-03T06:54:41;96672.81;;;-1.11;91.78
53916;BME280;39827;49.652;18.770;2023-03-03T06:57:29;96672.91;;;-0.74;90.87
53916;BME280;39827;49.652;18.770;2023-03-03T06:59:57;96684.19;;;-0.82;90.86
53916;BME280;39827;49.652;18.770;2023-03-03T07:02:24;96684.47;;;-0.77;90.32
53916;BME280;39827;49.652;18.770;2023-03-03T07:04:49;96678.59;;;-0.49;90.34
53916;BME280;39827;49.652;18.770;2023-03-03T07:07:16;96688.53;;;-0.22;89.98
53916;BME280;39827;49.652;18.770;2023-03-03T07:09:44;96688.44;;;-0.29;90.39
53916;BME280;39827;49.652;18.770;2023-03-03T07:12:32;96691.75;;;0.02;91.27
53916;BME280;39827;49.652;18.770;2023-03-03T07:17:43;96673.13;;;0.70;90.18
53916;BME280;39827;49.652;18.770;2023-03-03T07:20:24;96687.53;;;1.30;89.42
53916;BME280;39827;49.652;18.770;2023-03-03T07:22:52;96681.78;;;1.41;88.92
53916;BME280;39827;49.652;18.770;2023-03-03T07:25:38;96692.13;;;1.70;89.37
53916;BME280;39827;49.652;18.770;2023-03-03T07:28:17;96705.34;;;1.62;89.21
53916;BME280;39827;49.652;18.770;2023-03-03T07:30:44;96694.13;;;1.68;90.62
53916;BME280;39827;49.652;18.770;2023-03-03T07:33:33;96697.41;;;1.84;87.13
53916;BME280;39827;49.652;18.770;2023-03-03T07:36:01;96691.44;;;2.10;87.75
53916;BME280;39827;49.652;18.770;2023-03-03T07:38:53;96700.25;;;2.02;87.90
53916;BME280;39827;49.652;18.770;2023-03-03T07:41:19;96702.09;;;2.02;87.75
53916;BME280;39827;49.652;18.770;2023-03-03T07:43:48;96698.03;;;1.92;87.62
53916;BME280;39827;49.652;18.770;2023-03-03T07:46:25;96702.06;;;1.95;87.99
53916;BME280;39827;49.652;18.770;2023-03-03T07:48:52;96696.56;;;1.76;88.60
53916;BME280;39827;49.652;18.770;2023-03-03T07:51:35;96688.50;;;1.71;89.84
53916;BME280;39827;49.652;18.770;2023-03-03T07:54:29;96701.00;;;1.82;90.53
53916;BME280;39827;49.652;18.770;2023-03-03T07:59:34;96675.94;;;1.88;90.40
53916;BME280;39827;49.652;18.770;2023-03-03T08:02:00;96675.28;;;1.73;90.08
53916;BME280;39827;49.652;18.770;2023-03-03T08:04:43;96667.47;;;1.79;88.89
53916;BME280;39827;49.652;18.770;2023-03-03T08:07:19;96652.97;;;1.70;89.83
53916;BME280;39827;49.652;18.770;2023-03-03T08:09:59;96631.38;;;2.17;88.20
53916;BME280;39827;49.652;18.770;2023-03-03T08:12:41;96634.59;;;2.80;84.69
53916;BME280;39827;49.652;18.770;2023-03-03T08:15:24;96639.69;;;3.73;83.30
53916;BME280;39827;49.652;18.770;2023-03-03T08:17:51;96623.97;;;4.12;80.64
53916;BME280;39827;49.652;18.770;2023-03-03T08:23:07;96637.56;;;3.63;79.05
53916;BME280;39827;49.652;18.770;2023-03-03T08:25:33;96646.53;;;3.28;80.37
53916;BME280;39827;49.652;18.770;2023-03-03T08:27:58;96644.13;;;3.26;81.82
53916;BME280;39827;49.652;18.770;2023-03-03T08:30:23;96638.13;;;3.12;82.16
53916;BME280;39827;49.652;18.770;2023-03-03T08:32:49;96636.38;;;2.86;82.74
53916;BME280;39827;49.652;18.770;2023-03-03T08:35:14;96631.75;;;2.95;83.03
53916;BME280;39827;49.652;18.770;2023-03-03T08:37:40;96637.94;;;3.00;83.07
53916;BME280;39827;49.652;18.770;2023-03-03T08:40:05;96628.53;;;2.79;83.88
53916;BME280;39827;49.652;18.770;2023-03-03T08:42:31;96633.53;;;3.01;82.62
53916;BME280;39827;49.652;18.770;2023-03-03T08:44:56;96634.53;;;3.07;82.64
53916;BME280;39827;49.652;18.770;2023-03-03T08:47:22;96633.31;;;3.03;82.96
53916;BME280;39827;49.652;18.770;2023-03-03T08:49:47;96643.38;;;3.06;81.82
53916;BME280;39827;49.652;18.770;2023-03-03T08:52:13;96643.94;;;3.21;81.26
53916;BME280;39827;49.652;18.770;2023-03-03T08:54:38;96651.75;;;3.81;79.98
53916;BME280;39827;49.652;18.770;2023-03-03T08:57:04;96662.16;;;3.94;78.67
53916;BME280;39827;49.652;18.770;2023-03-03T08:59:29;96653.41;;;3.75;77.38
53916;BME280;39827;49.652;18.770;2023-03-03T09:01:54;96650.88;;;3.94;78.52
53916;BME280;39827;49.652;18.770;2023-03-03T09:04:20;96647.03;;;4.28;76.67
53916;BME280;39827;49.652;18.770;2023-03-03T09:06:45;96671.06;;;5.58;73.38
53916;BME280;39827;49.652;18.770;2023-03-03T09:09:11;96662.97;;;5.90;71.08
53916;BME280;39827;49.652;18.770;2023-03-03T09:11:36;96661.66;;;5.50;70.04
53916;BME280;39827;49.652;18.770;2023-03-03T09:14:10;96658.44;;;5.29;70.85
53916;BME280;39827;49.652;18.770;2023-03-03T09:16:38;96670.34;;;4.88;71.62
53916;BME280;39827;49.652;18.770;2023-03-03T09:19:34;96673.47;;;4.27;74.72
53916;BME280;39827;49.652;18.770;2023-03-03T09:22:17;96674.22;;;4.02;77.89
53916;BME280;39827;49.652;18.770;2023-03-03T09:24:43;96671.97;;;3.67;78.77
53916;BME280;39827;49.652;18.770;2023-03-03T09:27:18;96687.50;;;3.61;79.06
53916;BME280;39827;49.652;18.770;2023-03-03T09:29:44;96684.53;;;3.37;79.82
53916;BME280;39827;49.652;18.770;2023-03-03T09:32:33;96691.63;;;3.37;80.76
53916;BME280;39827;49.652;18.770;2023-03-03T09:35:35;96698.09;;;3.07;81.90
53916;BME280;39827;49.652;18.770;2023-03-03T09:38:16;96692.91;;;2.87;83.65
53916;BME280;39827;49.652;18.770;2023-03-03T09:41:15;96688.06;;;2.70;84.89
53916;BME280;39827;49.652;18.770;2023-03-03T09:56:07;96681.44;;;2.81;85.60
53916;BME280;39827;49.652;18.770;2023-03-03T10:07:38;96680.03;;;2.31;88.09
53916;BME280;39827;49.652;18.770;2023-03-03T10:10:18;96680.19;;;2.10;89.61
53916;BME280;39827;49.652;18.770;2023-03-03T10:16:12;96695.28;;;2.14;89.45
53916;BME280;39827;49.652;18.770;2023-03-03T10:19:00;96687.22;;;2.16;89.74
53916;BME280;39827;49.652;18.770;2023-03-03T10:21:48;96696.03;;;2.01;90.46
53916;BME280;39827;49.652;18.770;2023-03-03T10:24:37;96684.78;;;2.01;90.56
53916;BME280;39827;49.652;18.770;2023-03-03T10:27:32;96679.59;;;2.07;90.72
53916;BME280;39827;49.652;18.770;2023-03-03T10:32:45;96694.03;;;1.97;91.30
53916;BME280;39827;49.652;18.770;2023-03-03T10:35:38;96693.91;;;2.52;89.98
53916;BME280;39827;49.652;18.770;2023-03-03T10:49:31;96710.38;;;2.46;88.35
53916;BME280;39827;49.652;18.770;2023-03-03T10:55:15;96706.72;;;2.20;88.71
53916;BME280;39827;49.652;18.770;2023-03-03T11:12:19;96711.31;;;2.04;88.49
53916;BME280;39827;49.652;18.770;2023-03-03T11:23:54;96720.53;;;1.93;89.32
53916;BME280;39827;49.652;18.770;2023-03-03T11:35:19;96719.53;;;2.01;89.19
53916;BME280;39827;49.652;18.770;2023-03-03T11:40:53;96706.97;;;2.39;87.71
53916;BME280;39827;49.652;18.770;2023-03-03T11:45:55;96694.69;;;2.39;87.41
53916;BME280;39827;49.652;18.770;2023-03-03T11:49:08;96698.53;;;2.43;86.19
53916;BME280;39827;49.652;18.770;2023-03-03T11:51:14;96704.38;;;2.52;85.34
53916;BME280;39827;49.652;18.770;2023-03-03T11:56:29;96709.41;;;2.60;83.88
53916;BME280;39827;49.652;18.770;2023-03-03T12:01:53;96714.00;;;2.31;85.26
53916;BME280;39827;49.652;18.770;2023-03-03T12:04:33;96695.44;;;1.99;85.74
53916;BME280;39827;49.652;18.770;2023-03-03T12:10:05;96712.03;;;1.78;88.66
53916;BME280;39827;49.652;18.770;2023-03-03T12:12:42;96702.34;;;1.65;89.47
53916;BME280;39827;49.652;18.770;2023-03-03T12:21:01;96710.13;;;1.51;91.77
53916;BME280;39827;49.652;18.770;2023-03-03T12:23:58;96704.00;;;1.30;92.35
53916;BME280;39827;49.652;18.770;2023-03-03T12:34:53;96695.34;;;0.95;95.64
53916;BME280;39827;49.652;18.770;2023-03-03T12:37:44;96703.25;;;0.80;96.84
53916;BME280;39827;49.652;18.770;2023-03-03T12:40:18;96700.75;;;0.93;96.94
53916;BME280;39827;49.652;18.770;2023-03-03T12:42:58;96705.72;;;0.88;97.54
53916;BME280;39827;49.652;18.770;2023-03-03T12:45:40;96713.31;;;0.83;97.65
53916;BME280;39827;49.652;18.770;2023-03-03T12:48:16;96703.91;;;0.82;98.72
53916;BME280;39827;49.652;18.770;2023-03-03T12:51:04;96706.50;;;0.82;98.68
53916;BME280;39827;49.652;18.770;2023-03-03T12:56:12;96703.44;;;0.49;99.77
53916;BME280;39827;49.652;18.770;2023-03-03T13:01:59;96694.97;;;0.69;98.90
53916;BME280;39827;49.652;18.770;2023-03-03T13:04:32;96713.31;;;0.83;97.69
53916;BME280;39827;49.652;18.770;2023-03-03T13:12:35;96695.53;;;0.93;97.45
53916;BME280;39827;49.652;18.770;2023-03-03T13:15:11;96693.97;;;0.99;97.79
53916;BME280;39827;49.652;18.770;2023-03-03T13:17:48;96692.38;;;0.98;97.31
53916;BME280;39827;49.652;18.770;2023-03-03T13:22:56;96692.88;;;0.86;97.22
53916;BME280;39827;49.652;18.770;2023-03-03T13:25:38;96688.44;;;1.09;95.24
53916;BME280;39827;49.652;18.770;2023-03-03T13:28:20;96687.25;;;0.83;97.08
53916;BME280;39827;49.652;18.770;2023-03-03T13:30:49;96690.41;;;0.78;98.19
53916;BME280;39827;49.652;18.770;2023-03-03T13:33:33;96692.38;;;0.98;98.07
53916;BME280;39827;49.652;18.770;2023-03-03T13:36:04;96681.25;;;1.17;97.29
53916;BME280;39827;49.652;18.770;2023-03-03T13:38:41;96684.28;;;1.21;96.97
53916;BME280;39827;49.652;18.770;2023-03-03T13:41:29;96680.97;;;1.06;97.39
53916;BME280;39827;49.652;18.770;2023-03-03T13:44:08;96679.81;;;1.15;97.54
53916;BME280;39827;49.652;18.770;2023-03-03T13:52:06;96686.94;;;0.93;97.40
53916;BME280;39827;49.652;18.770;2023-03-03T14:03:21;96657.50;;;1.06;96.06
53916;BME280;39827;49.652;18.770;2023-03-03T14:05:40;96673.44;;;0.89;97.27
53916;BME280;39827;49.652;18.770;2023-03-03T14:16:08;96668.56;;;1.08;98.62
53916;BME280;39827;49.652;18.770;2023-03-03T14:18:38;96670.91;;;1.02;98.67
53916;BME280;39827;49.652;18.770;2023-03-03T14:21:13;96656.44;;;0.93;97.57
53916;BME280;39827;49.652;18.770;2023-03-03T14:23:53;96664.97;;;1.09;98.15
53916;BME280;39827;49.652;18.770;2023-03-03T14:26:21;96654.69;;;0.72;98.84
53916;BME280;39827;49.652;18.770;2023-03-03T14:28:48;96648.25;;;0.68;99.59
53916;BME280;39827;49.652;18.770;2023-03-03T14:31:26;96648.66;;;0.71;100.00
53916;BME280;39827;49.652;18.770;2023-03-03T14:36:51;96656.16;;;0.81;100.00
53916;BME280;39827;49.652;18.770;2023-03-03T14:39:38;96642.81;;;0.62;99.94
53916;BME280;39827;49.652;18.770;2023-03-03T14:42:34;96652.50;;;0.75;100.00
53916;BME280;39827;49.652;18.770;2023-03-03T14:45:18;96650.91;;;0.74;99.77
53916;BME280;39827;49.652;18.770;2023-03-03T14:47:45;96654.66;;;0.65;100.00
53916;BME280;39827;49.652;18.770;2023-03-03T14:50:34;96645.84;;;0.66;100.00
53916;BME280;39827;49.652;18.770;2023-03-03T14:53:10;96649.91;;;0.75;98.87
53916;BME280;39827;49.652;18.770;2023-03-03T14:55:39;96652.69;;;0.45;100.00
53916;BME280;39827;49.652;18.770;2023-03-03T15:00:49;96657.50;;;0.70;100.00
53916;BME280;39827;49.652;18.770;2023-03-03T15:03:26;96649.06;;;0.68;99.99
53916;BME280;39827;49.652;18.770;2023-03-03T15:05:55;96661.41;;;0.59;100.00
53916;BME280;39827;49.652;18.770;2023-03-03T15:08:33;96661.66;;;0.64;100.00
53916;BME280;39827;49.652;18.770;2023-03-03T15:11:26;96652.28;;;0.70;100.00
53916;BME280;39827;49.652;18.770;2023-03-03T15:14:15;96651.69;;;0.68;99.99
53916;BME280;39827;49.652;18.770;2023-03-03T15:16:42;96653.84;;;0.64;99.77
53916;BME280;39827;49.652;18.770;2023-03-03T15:21:54;96650.25;;;0.66;97.78
53916;BME280;39827;49.652;18.770;2023-03-03T15:24:29;96652.97;;;0.50;98.83
53916;BME280;39827;49.652;18.770;2023-03-03T15:27:18;96652.50;;;0.47;99.02
53916;BME280;39827;49.652;18.770;2023-03-03T15:30:01;96663.75;;;0.47;97.43
53916;BME280;39827;49.652;18.770;2023-03-03T15:38:29;96652.75;;;0.52;97.41
53916;BME280;39827;49.652;18.770;2023-03-03T15:43:33;96668.41;;;0.59;95.68
53916;BME280;39827;49.652;18.770;2023-03-03T15:48:37;96666.84;;;0.36;95.81
53916;BME280;39827;49.652;18.770;2023-03-03T15:51:12;96658.56;;;0.25;95.72
53916;BME280;39827;49.652;18.770;2023-03-03T15:54:05;96667.59;;;0.30;97.00
53916;BME280;39827;49.652;18.770;2023-03-03T16:04:48;96662.75;;;0.48;94.67
53916;BME280;39827;49.652;18.770;2023-03-03T16:15:23;96672.00;;;0.07;97.02
53916;BME280;39827;49.652;18.770;2023-03-03T16:23:46;96671.25;;;0.35;96.44
53916;BME280;39827;49.652;18.770;2023-03-03T16:26:46;96661.28;;;0.17;96.59
53916;BME280;39827;49.652;18.770;2023-03-03T16:29:42;96668.22;;;0.32;95.67
53916;BME280;39827;49.652;18.770;2023-03-03T16:34:53;96670.44;;;0.35;95.55
53916;BME280;39827;49.652;18.770;2023-03-03T16:37:32;96679.13;;;0.42;95.16
53916;BME280;39827;49.652;18.770;2023-03-03T16:42:43;96668.84;;;0.12;96.20
53916;BME280;39827;49.652;18.770;2023-03-03T16:50:47;96673.88;;;0.14;96.47